createdAt,value
2018-07-07T00:00:20.707Z,0.00
2018-07-07T00:01:20.623Z,0.00
2018-07-07T00:03:13.901Z,0.00
2018-07-07T00:04:13.840Z,0.00
2018-07-07T00:06:07.242Z,0.00
2018-07-07T00:07:07.055Z,0.00
2018-07-07T00:09:00.333Z,0.00
2018-07-07T00:10:00.273Z,0.00
2018-07-07T00:11:53.567Z,0.00
2018-07-07T00:12:53.489Z,0.00
2018-07-07T00:14:46.783Z,0.00
2018-07-07T00:15:46.703Z,0.00
2018-07-07T00:17:39.981Z,0.00
2018-07-07T00:18:39.920Z,0.00
2018-07-07T00:20:33.215Z,0.00
2018-07-07T00:21:33.132Z,0.00
2018-07-07T00:23:26.411Z,0.00
2018-07-07T00:24:26.351Z,0.00
2018-07-07T00:26:20.646Z,0.00
2018-07-07T00:27:20.568Z,0.00
2018-07-07T00:29:13.843Z,0.00
2018-07-07T00:30:13.782Z,0.00
2018-07-07T00:32:07.100Z,0.00
2018-07-07T00:33:06.996Z,0.00
2018-07-07T00:35:01.472Z,0.00
2018-07-07T00:36:01.411Z,0.00
2018-07-07T00:37:54.696Z,0.00
2018-07-07T00:38:54.617Z,0.00
2018-07-07T00:40:47.914Z,0.00
2018-07-07T00:41:47.829Z,0.00
2018-07-07T00:43:41.110Z,0.00
2018-07-07T00:44:41.047Z,0.00
2018-07-07T00:46:34.343Z,0.00
2018-07-07T00:47:34.263Z,0.00
2018-07-07T00:49:27.539Z,0.00
2018-07-07T00:50:27.475Z,0.00
2018-07-07T00:52:20.774Z,0.00
2018-07-07T00:53:20.688Z,0.00
2018-07-07T00:55:13.967Z,0.00
2018-07-07T00:56:13.909Z,0.00
2018-07-07T00:58:07.191Z,0.00
2018-07-07T00:59:07.110Z,0.00
2018-07-07T01:01:00.406Z,0.00
2018-07-07T01:02:00.324Z,0.00
2018-07-07T01:03:53.601Z,0.00
2018-07-07T01:04:53.538Z,0.00
2018-07-07T01:06:46.940Z,0.00
2018-07-07T01:07:46.753Z,0.00
2018-07-07T01:09:40.031Z,0.00
2018-07-07T01:10:39.967Z,0.00
2018-07-07T01:12:33.494Z,0.00
2018-07-07T01:13:33.408Z,0.00
2018-07-07T01:15:26.684Z,0.00
2018-07-07T01:16:26.622Z,0.00
2018-07-07T01:18:19.908Z,0.00
2018-07-07T01:19:19.827Z,0.00
2018-07-07T01:21:13.970Z,0.00
2018-07-07T01:22:13.888Z,0.00
2018-07-07T01:24:07.168Z,0.00
2018-07-07T01:25:07.102Z,0.00
2018-07-07T01:27:00.396Z,0.00
2018-07-07T01:28:00.316Z,0.00
2018-07-07T01:29:53.591Z,0.00
2018-07-07T01:30:53.529Z,0.00
2018-07-07T01:32:46.831Z,0.00
2018-07-07T01:33:46.748Z,0.00
2018-07-07T01:35:40.026Z,0.00
2018-07-07T01:36:39.961Z,0.00
2018-07-07T01:38:33.249Z,0.00
2018-07-07T01:39:33.165Z,0.00
2018-07-07T01:41:26.474Z,0.00
2018-07-07T01:42:26.378Z,0.00
2018-07-07T01:44:19.655Z,0.00
2018-07-07T01:45:19.590Z,0.00
2018-07-07T01:47:12.885Z,0.00
2018-07-07T01:48:12.802Z,0.00
2018-07-07T01:50:06.083Z,0.00
2018-07-07T01:51:06.014Z,0.00
2018-07-07T01:52:59.482Z,0.00
2018-07-07T01:53:59.399Z,0.00
2018-07-07T01:55:52.678Z,0.00
2018-07-07T01:56:52.611Z,0.00
2018-07-07T01:58:45.901Z,0.00
2018-07-07T01:59:45.818Z,0.00
2018-07-07T02:01:39.095Z,0.00
2018-07-07T02:02:39.031Z,0.00
2018-07-07T02:04:32.330Z,0.00
2018-07-07T02:05:32.246Z,0.00
2018-07-07T02:07:25.539Z,0.00
2018-07-07T02:08:25.455Z,0.00
2018-07-07T02:10:18.739Z,0.00
2018-07-07T02:11:18.668Z,0.00
2018-07-07T02:13:11.974Z,0.00
2018-07-07T02:14:11.893Z,0.00
2018-07-07T02:16:05.169Z,0.00
2018-07-07T02:17:05.104Z,0.00
2018-07-07T02:18:58.505Z,0.00
2018-07-07T02:19:58.316Z,0.00
2018-07-07T02:21:51.593Z,0.00
2018-07-07T02:22:51.530Z,0.00
2018-07-07T02:24:44.825Z,0.00
2018-07-07T02:25:44.743Z,0.00
2018-07-07T02:27:38.036Z,0.00
2018-07-07T02:28:37.957Z,0.00
2018-07-07T02:30:31.231Z,0.00
2018-07-07T02:31:31.170Z,0.00
2018-07-07T02:33:24.466Z,4.00
2018-07-07T02:34:24.380Z,4.00
2018-07-07T02:36:17.655Z,4.00
2018-07-07T02:37:17.597Z,0.00
2018-07-07T02:39:10.889Z,4.00
2018-07-07T02:40:10.807Z,4.00
2018-07-07T02:42:04.082Z,4.00
2018-07-07T02:43:04.021Z,4.00
2018-07-07T02:44:57.484Z,8.00
2018-07-07T02:45:57.401Z,8.00
2018-07-07T02:47:50.710Z,8.00
2018-07-07T02:48:50.607Z,8.00
2018-07-07T02:50:43.882Z,12.00
2018-07-07T02:51:43.824Z,12.00
2018-07-07T02:53:37.114Z,16.00
2018-07-07T02:54:37.030Z,16.00
2018-07-07T02:56:30.333Z,24.00
2018-07-07T02:57:30.248Z,24.00
2018-07-07T02:59:23.536Z,28.00
2018-07-07T03:00:23.456Z,36.00
2018-07-07T03:02:16.733Z,40.00
2018-07-07T03:03:16.730Z,44.00
2018-07-07T03:05:09.961Z,56.00
2018-07-07T03:06:09.880Z,60.00
2018-07-07T03:08:03.148Z,72.00
2018-07-07T03:09:03.085Z,76.00
2018-07-07T03:10:56.376Z,88.00
2018-07-07T03:11:56.297Z,96.00
2018-07-07T03:13:49.590Z,116.00
2018-07-07T03:14:49.509Z,124.00
2018-07-07T03:16:42.784Z,140.00
2018-07-07T03:17:42.724Z,148.00
2018-07-07T03:19:36.024Z,164.00
2018-07-07T03:20:35.937Z,172.00
2018-07-07T03:22:29.208Z,196.00
2018-07-07T03:23:29.145Z,208.00
2018-07-07T03:25:22.546Z,236.00
2018-07-07T03:26:22.358Z,248.00
2018-07-07T03:28:15.627Z,276.00
2018-07-07T03:29:15.564Z,292.00
2018-07-07T03:31:08.859Z,320.00
2018-07-07T03:32:08.776Z,328.00
2018-07-07T03:34:02.073Z,352.00
2018-07-07T03:35:02.007Z,364.00
2018-07-07T03:36:55.488Z,388.00
2018-07-07T03:37:55.408Z,404.00
2018-07-07T03:39:48.707Z,436.00
2018-07-07T03:40:48.621Z,452.00
2018-07-07T03:42:41.896Z,464.00
2018-07-07T03:43:41.835Z,480.00
2018-07-07T03:45:35.126Z,520.00
2018-07-07T03:46:35.047Z,540.00
2018-07-07T03:48:28.425Z,568.00
2018-07-07T03:49:28.266Z,584.00
2018-07-07T03:51:21.556Z,624.00
2018-07-07T03:52:21.474Z,640.00
2018-07-07T03:54:14.750Z,680.00
2018-07-07T03:55:14.685Z,712.00
2018-07-07T03:57:07.980Z,824.00
2018-07-07T03:58:07.900Z,928.00
2018-07-07T04:00:01.193Z,1140.00
2018-07-07T04:01:01.109Z,1232.00
2018-07-07T04:02:54.383Z,1352.00
2018-07-07T04:03:54.320Z,1392.00
2018-07-07T04:05:47.612Z,1468.00
2018-07-07T04:06:47.534Z,1512.00
2018-07-07T04:08:40.806Z,1612.00
2018-07-07T04:09:40.744Z,1660.00
2018-07-07T04:11:34.042Z,1736.00
2018-07-07T04:12:33.958Z,1780.00
2018-07-07T04:14:27.250Z,1864.00
2018-07-07T04:15:27.172Z,1884.00
2018-07-07T04:17:20.549Z,1944.00
2018-07-07T04:18:20.404Z,1992.00
2018-07-07T04:20:13.699Z,2044.00
2018-07-07T04:21:13.617Z,2064.00
2018-07-07T04:23:06.892Z,2120.00
2018-07-07T04:24:06.830Z,2164.00
2018-07-07T04:26:01.123Z,2248.00
2018-07-07T04:27:01.041Z,2276.00
2018-07-07T04:28:54.466Z,2328.00
2018-07-07T04:29:54.402Z,2356.00
2018-07-07T04:31:47.802Z,2440.00
2018-07-07T04:32:47.620Z,2504.00
2018-07-07T04:34:40.890Z,2620.00
2018-07-07T04:35:40.825Z,2664.00
2018-07-07T04:37:34.122Z,2748.00
2018-07-07T04:38:34.040Z,2768.00
2018-07-07T04:40:27.333Z,2812.00
2018-07-07T04:41:27.256Z,2856.00
2018-07-07T04:43:21.527Z,2936.00
2018-07-07T04:44:21.467Z,2992.00
2018-07-07T04:46:14.761Z,3108.00
2018-07-07T04:47:14.681Z,3132.00
2018-07-07T04:49:07.960Z,3076.00
2018-07-07T04:50:07.894Z,3032.00
2018-07-07T04:52:01.190Z,3024.00
2018-07-07T04:53:01.109Z,3044.00
2018-07-07T04:54:54.472Z,3088.00
2018-07-07T04:55:54.408Z,3112.00
2018-07-07T04:57:47.708Z,3148.00
2018-07-07T04:58:47.625Z,3156.00
2018-07-07T05:00:40.920Z,3156.00
2018-07-07T05:01:40.838Z,3184.00
2018-07-07T05:03:34.113Z,3268.00
2018-07-07T05:04:34.119Z,3284.00
2018-07-07T05:06:27.348Z,3288.00
2018-07-07T05:07:27.265Z,3304.00
2018-07-07T05:09:20.543Z,3328.00
2018-07-07T05:10:20.479Z,3320.00
2018-07-07T05:12:13.777Z,3296.00
2018-07-07T05:13:13.695Z,3288.00
2018-07-07T05:15:06.972Z,3272.00
2018-07-07T05:16:06.911Z,3276.00
2018-07-07T05:18:00.204Z,3316.00
2018-07-07T05:19:00.125Z,3348.00
2018-07-07T05:20:53.420Z,3368.00
2018-07-07T05:21:53.339Z,3360.00
2018-07-07T05:23:46.633Z,3364.00
2018-07-07T05:24:46.552Z,3372.00
2018-07-07T05:26:39.853Z,3364.00
2018-07-07T05:27:39.770Z,3356.00
2018-07-07T05:29:33.151Z,3356.00
2018-07-07T05:30:32.984Z,3356.00
2018-07-07T05:32:26.494Z,3360.00
2018-07-07T05:33:26.417Z,3372.00
2018-07-07T05:35:19.688Z,3404.00
2018-07-07T05:36:19.626Z,3420.00
2018-07-07T05:38:12.940Z,3456.00
2018-07-07T05:39:12.849Z,3480.00
2018-07-07T05:41:06.226Z,3520.00
2018-07-07T05:42:06.061Z,3528.00
2018-07-07T05:43:59.354Z,3500.00
2018-07-07T05:44:59.272Z,3468.00
2018-07-07T05:46:52.568Z,3420.00
2018-07-07T05:47:52.510Z,3408.00
2018-07-07T05:49:45.764Z,3420.00
2018-07-07T05:50:45.703Z,3436.00
2018-07-07T05:52:38.999Z,3472.00
2018-07-07T05:53:38.916Z,3496.00
2018-07-07T05:55:32.195Z,3552.00
2018-07-07T05:56:32.132Z,3588.00
2018-07-07T05:58:25.429Z,3652.00
2018-07-07T05:59:25.348Z,3660.00
2018-07-07T06:01:18.627Z,3640.00
2018-07-07T06:02:18.564Z,3616.00
2018-07-07T06:04:11.861Z,3592.00
2018-07-07T06:05:11.779Z,3588.00
2018-07-07T06:07:05.077Z,3664.00
2018-07-07T06:08:04.995Z,3720.00
2018-07-07T06:09:59.271Z,3816.00
2018-07-07T06:10:59.209Z,3844.00
2018-07-07T06:12:52.507Z,3920.00
2018-07-07T06:13:52.427Z,3980.00
2018-07-07T06:15:45.703Z,4152.00
2018-07-07T06:16:45.640Z,4300.00
2018-07-07T06:18:38.928Z,4736.00
2018-07-07T06:19:38.904Z,5376.00
2018-07-07T06:21:32.131Z,7884.00
2018-07-07T06:22:32.068Z,8856.00
2018-07-07T06:24:25.378Z,8860.00
2018-07-07T06:25:25.301Z,8832.00
2018-07-07T06:27:18.608Z,8744.00
2018-07-07T06:28:18.531Z,8744.00
2018-07-07T06:30:11.822Z,8896.00
2018-07-07T06:31:11.769Z,8744.00
2018-07-07T06:33:05.182Z,8728.00
2018-07-07T06:34:05.011Z,8744.00
2018-07-07T06:35:58.480Z,8684.00
2018-07-07T06:36:58.428Z,8704.00
2018-07-07T06:38:51.743Z,8572.00
2018-07-07T06:39:51.675Z,8392.00
2018-07-07T06:41:44.977Z,8412.00
2018-07-07T06:42:44.926Z,8344.00
2018-07-07T06:44:39.239Z,8296.00
2018-07-07T06:45:39.173Z,8180.00
2018-07-07T06:47:32.502Z,8068.00
2018-07-07T06:48:32.433Z,8040.00
2018-07-07T06:50:25.733Z,8172.00
2018-07-07T06:51:25.685Z,8132.00
2018-07-07T06:53:19.015Z,8120.00
2018-07-07T06:54:18.945Z,8156.00
2018-07-07T06:56:12.480Z,8140.00
2018-07-07T06:57:12.428Z,8080.00
2018-07-07T06:59:05.747Z,7908.00
2018-07-07T07:00:05.726Z,8228.00
2018-07-07T07:01:58.984Z,8276.00
2018-07-07T07:02:58.936Z,8120.00
2018-07-07T07:04:52.257Z,7624.00
2018-07-07T07:05:52.192Z,7532.00
2018-07-07T07:07:45.504Z,7800.00
2018-07-07T07:08:45.439Z,7792.00
2018-07-07T07:10:38.741Z,7736.00
2018-07-07T07:11:38.692Z,7736.00
2018-07-07T07:13:32.015Z,7792.00
2018-07-07T07:14:31.948Z,7980.00
2018-07-07T07:16:25.253Z,7812.00
2018-07-07T07:17:25.205Z,7808.00
2018-07-07T07:19:18.536Z,8068.00
2018-07-07T07:20:18.469Z,8140.00
2018-07-07T07:22:11.770Z,8148.00
2018-07-07T07:23:11.723Z,8188.00
2018-07-07T07:25:05.050Z,7856.00
2018-07-07T07:26:05.037Z,8080.00
2018-07-07T07:27:58.473Z,8024.00
2018-07-07T07:28:58.425Z,8952.00
2018-07-07T07:30:51.749Z,7464.00
2018-07-07T07:31:51.678Z,7336.00
2018-07-07T07:33:46.002Z,8356.00
2018-07-07T07:34:45.936Z,6796.00
2018-07-07T07:36:39.244Z,8164.00
2018-07-07T07:37:39.188Z,8496.00
2018-07-07T07:39:32.516Z,8728.00
2018-07-07T07:40:32.440Z,8628.00
2018-07-07T07:42:25.744Z,8416.00
2018-07-07T07:43:25.694Z,8228.00
2018-07-07T07:45:20.013Z,8400.00
2018-07-07T07:46:19.948Z,8172.00
2018-07-07T07:48:13.244Z,7812.00
2018-07-07T07:49:13.188Z,8316.00
2018-07-07T07:51:06.512Z,8448.00
2018-07-07T07:52:06.457Z,8548.00
2018-07-07T07:53:59.748Z,8508.00
2018-07-07T07:54:59.696Z,8432.00
2018-07-07T07:56:53.123Z,8628.00
2018-07-07T07:57:52.953Z,8616.00
2018-07-07T07:59:46.499Z,8660.00
2018-07-07T08:00:46.425Z,8700.00
2018-07-07T08:02:39.749Z,8676.00
2018-07-07T08:03:39.697Z,8676.00
2018-07-07T08:05:33.021Z,8716.00
2018-07-07T08:06:32.953Z,8728.00
2018-07-07T08:08:27.255Z,8688.00
2018-07-07T08:09:27.206Z,8572.00
2018-07-07T08:11:20.527Z,8420.00
2018-07-07T08:12:20.496Z,8328.00
2018-07-07T08:14:13.775Z,8088.00
2018-07-07T08:15:13.709Z,8012.00
2018-07-07T08:17:07.031Z,7980.00
2018-07-07T08:18:06.961Z,7984.00
2018-07-07T08:20:01.296Z,7792.00
2018-07-07T08:21:01.210Z,7764.00
2018-07-07T08:22:54.540Z,7784.00
2018-07-07T08:23:54.460Z,7680.00
2018-07-07T08:25:47.773Z,7688.00
2018-07-07T08:26:47.704Z,7736.00
2018-07-07T08:28:40.993Z,7728.00
2018-07-07T08:29:40.939Z,7712.00
2018-07-07T08:31:34.261Z,7632.00
2018-07-07T08:32:34.189Z,7676.00
2018-07-07T08:34:27.625Z,7636.00
2018-07-07T08:35:27.417Z,7500.00
2018-07-07T08:37:20.722Z,7464.00
2018-07-07T08:38:20.652Z,7512.00
2018-07-07T08:40:13.947Z,7560.00
2018-07-07T08:41:13.892Z,7512.00
2018-07-07T08:43:07.208Z,7480.00
2018-07-07T08:44:07.133Z,7512.00
2018-07-07T08:46:00.496Z,7640.00
2018-07-07T08:47:00.422Z,7648.00
2018-07-07T08:48:53.716Z,7640.00
2018-07-07T08:49:53.664Z,7768.00
2018-07-07T08:51:46.974Z,7896.00
2018-07-07T08:52:46.900Z,7848.00
2018-07-07T08:54:40.194Z,7952.00
2018-07-07T08:55:40.139Z,7944.00
2018-07-07T08:57:33.454Z,7948.00
2018-07-07T08:58:33.381Z,8084.00
2018-07-07T09:00:26.678Z,7996.00
2018-07-07T09:01:26.624Z,7820.00
2018-07-07T09:03:19.933Z,7644.00
2018-07-07T09:04:19.860Z,7564.00
2018-07-07T09:06:13.270Z,7660.00
2018-07-07T09:07:13.101Z,7788.00
2018-07-07T09:09:06.475Z,7804.00
2018-07-07T09:10:06.427Z,7872.00
2018-07-07T09:12:00.733Z,7676.00
2018-07-07T09:13:00.659Z,7632.00
2018-07-07T09:14:53.953Z,7356.00
2018-07-07T09:15:53.900Z,7564.00
2018-07-07T09:17:48.199Z,7648.00
2018-07-07T09:18:48.192Z,7704.00
2018-07-07T09:20:41.425Z,7920.00
2018-07-07T09:21:41.371Z,7916.00
2018-07-07T09:23:34.683Z,7896.00
2018-07-07T09:24:34.669Z,7824.00
2018-07-07T09:26:27.922Z,7712.00
2018-07-07T09:27:27.851Z,7616.00
2018-07-07T09:29:21.151Z,7552.00
2018-07-07T09:30:21.093Z,7600.00
2018-07-07T09:32:14.487Z,7756.00
2018-07-07T09:33:14.413Z,7724.00
2018-07-07T09:35:07.712Z,7596.00
2018-07-07T09:36:07.657Z,7560.00
2018-07-07T09:38:00.964Z,7628.00
2018-07-07T09:39:00.896Z,7608.00
2018-07-07T09:40:54.188Z,7488.00
2018-07-07T09:41:54.137Z,7516.00
2018-07-07T09:43:47.447Z,7628.00
2018-07-07T09:44:47.378Z,7512.00
2018-07-07T09:46:40.691Z,7616.00
2018-07-07T09:47:40.619Z,7588.00
2018-07-07T09:49:33.915Z,7628.00
2018-07-07T09:50:33.859Z,7632.00
2018-07-07T09:52:27.174Z,7592.00
2018-07-07T09:53:27.100Z,7612.00
2018-07-07T09:55:20.475Z,7608.00
2018-07-07T09:56:20.483Z,7640.00
2018-07-07T09:58:13.729Z,7464.00
2018-07-07T09:59:13.655Z,7560.00
2018-07-07T10:01:07.053Z,7596.00
2018-07-07T10:02:06.897Z,7572.00
2018-07-07T10:04:00.210Z,7656.00
2018-07-07T10:05:00.140Z,7664.00
2018-07-07T10:06:53.532Z,7664.00
2018-07-07T10:07:53.387Z,7704.00
2018-07-07T10:09:46.696Z,7688.00
2018-07-07T10:10:46.626Z,7648.00
2018-07-07T10:12:40.942Z,7648.00
2018-07-07T10:13:40.868Z,7700.00
2018-07-07T10:15:34.162Z,7672.00
2018-07-07T10:16:34.111Z,7692.00
2018-07-07T10:18:27.417Z,7712.00
2018-07-07T10:19:27.344Z,7636.00
2018-07-07T10:21:20.678Z,7636.00
2018-07-07T10:22:20.597Z,7648.00
2018-07-07T10:24:13.954Z,4268.00
2018-07-07T10:25:13.884Z,7396.00
2018-07-07T10:27:07.187Z,7652.00
2018-07-07T10:28:07.134Z,7632.00
2018-07-07T10:30:00.488Z,7444.00
2018-07-07T10:31:00.412Z,7508.00
2018-07-07T10:32:53.737Z,7560.00
2018-07-07T10:33:53.664Z,7632.00
2018-07-07T10:35:46.962Z,7640.00
2018-07-07T10:36:46.908Z,7624.00
2018-07-07T10:38:40.218Z,7548.00
2018-07-07T10:39:40.147Z,7628.00
2018-07-07T10:41:33.444Z,7604.00
2018-07-07T10:42:33.393Z,7580.00
2018-07-07T10:44:26.714Z,7612.00
2018-07-07T10:45:26.674Z,7464.00
2018-07-07T10:47:19.953Z,7368.00
2018-07-07T10:48:19.884Z,7436.00
2018-07-07T10:50:13.224Z,7396.00
2018-07-07T10:51:13.120Z,7452.00
2018-07-07T10:53:06.499Z,7608.00
2018-07-07T10:54:06.420Z,7596.00
2018-07-07T10:55:59.835Z,7552.00
2018-07-07T10:56:59.665Z,7520.00
2018-07-07T10:58:52.999Z,7572.00
2018-07-07T10:59:52.909Z,7548.00
2018-07-07T11:01:46.207Z,7504.00
2018-07-07T11:02:46.156Z,7488.00
2018-07-07T11:04:39.472Z,7280.00
2018-07-07T11:05:39.413Z,7172.00
2018-07-07T11:07:32.697Z,7376.00
2018-07-07T11:08:32.644Z,7340.00
2018-07-07T11:10:25.961Z,7228.00
2018-07-07T11:11:25.890Z,7216.00
2018-07-07T11:13:20.313Z,7172.00
2018-07-07T11:14:20.136Z,7152.00
2018-07-07T11:16:13.433Z,6964.00
2018-07-07T11:17:13.381Z,6656.00
2018-07-07T11:19:06.700Z,6892.00
2018-07-07T11:20:06.700Z,6960.00
2018-07-07T11:21:59.923Z,6992.00
2018-07-07T11:22:59.877Z,2524.00
2018-07-07T11:24:53.192Z,6996.00
2018-07-07T11:25:53.121Z,6980.00
2018-07-07T11:27:46.514Z,6896.00
2018-07-07T11:28:46.463Z,6764.00
2018-07-07T11:30:40.779Z,6460.00
2018-07-07T11:31:40.708Z,6492.00
2018-07-07T11:33:34.039Z,6456.00
2018-07-07T11:34:33.957Z,6200.00
2018-07-07T11:36:27.288Z,6100.00
2018-07-07T11:37:27.202Z,5796.00
2018-07-07T11:39:21.518Z,5920.00
2018-07-07T11:40:21.446Z,5996.00
2018-07-07T11:42:14.787Z,5888.00
2018-07-07T11:43:14.692Z,5848.00
2018-07-07T11:45:08.008Z,5788.00
2018-07-07T11:46:07.936Z,5844.00
2018-07-07T11:48:01.224Z,5764.00
2018-07-07T11:49:01.171Z,5500.00
2018-07-07T11:50:54.501Z,5000.00
2018-07-07T11:51:54.427Z,5556.00
2018-07-07T11:53:47.746Z,5592.00
2018-07-07T11:54:47.667Z,5572.00
2018-07-07T11:56:40.959Z,5560.00
2018-07-07T11:57:40.920Z,5548.00
2018-07-07T11:59:34.217Z,5556.00
2018-07-07T12:00:34.144Z,5504.00
2018-07-07T12:02:27.436Z,5520.00
2018-07-07T12:03:27.387Z,5524.00
2018-07-07T12:05:20.701Z,5124.00
2018-07-07T12:06:20.618Z,5416.00
2018-07-07T12:08:14.254Z,5376.00
2018-07-07T12:09:13.849Z,5528.00
2018-07-07T12:11:07.261Z,5520.00
2018-07-07T12:12:07.089Z,5476.00
2018-07-07T12:14:01.412Z,5556.00
2018-07-07T12:15:01.327Z,5456.00
2018-07-07T12:16:54.617Z,5536.00
2018-07-07T12:17:54.561Z,5536.00
2018-07-07T12:19:48.879Z,5516.00
2018-07-07T12:20:48.799Z,5300.00
2018-07-07T12:22:42.200Z,5508.00
2018-07-07T12:23:42.028Z,5148.00
2018-07-07T12:25:36.492Z,5460.00
2018-07-07T12:26:36.419Z,5640.00
2018-07-07T12:28:29.711Z,5048.00
2018-07-07T12:29:29.666Z,5696.00
2018-07-07T12:31:23.019Z,5776.00
2018-07-07T12:32:22.893Z,5756.00
2018-07-07T12:34:16.185Z,5816.00
2018-07-07T12:35:16.128Z,5620.00
2018-07-07T12:37:09.448Z,5388.00
2018-07-07T12:38:09.366Z,5540.00
2018-07-07T12:40:02.677Z,4956.00
2018-07-07T12:41:02.604Z,5020.00
2018-07-07T12:42:55.895Z,5340.00
2018-07-07T12:43:55.841Z,5096.00
2018-07-07T12:45:49.165Z,5068.00
2018-07-07T12:46:49.076Z,4524.00
2018-07-07T12:48:42.470Z,5228.00
2018-07-07T12:49:42.416Z,4952.00
2018-07-07T12:51:35.726Z,5364.00
2018-07-07T12:52:35.655Z,5276.00
2018-07-07T12:54:28.940Z,4808.00
2018-07-07T12:55:28.882Z,5036.00
2018-07-07T12:57:22.292Z,5308.00
2018-07-07T12:58:22.119Z,5496.00
2018-07-07T13:00:15.431Z,5124.00
2018-07-07T13:01:15.394Z,5128.00
2018-07-07T13:03:08.751Z,5220.00
2018-07-07T13:04:08.593Z,5100.00
2018-07-07T13:06:02.005Z,4956.00
2018-07-07T13:07:01.869Z,4896.00
2018-07-07T13:08:55.121Z,5056.00
2018-07-07T13:09:55.074Z,5520.00
2018-07-07T13:11:48.493Z,5232.00
2018-07-07T13:12:48.424Z,5224.00
2018-07-07T13:14:41.720Z,2480.00
2018-07-07T13:15:41.660Z,2548.00
2018-07-07T13:17:34.970Z,5212.00
2018-07-07T13:18:34.897Z,4660.00
2018-07-07T13:20:28.208Z,5100.00
2018-07-07T13:21:28.133Z,5132.00
2018-07-07T13:23:21.424Z,5144.00
2018-07-07T13:24:21.369Z,5188.00
2018-07-07T13:26:14.684Z,3900.00
2018-07-07T13:27:14.610Z,3176.00
2018-07-07T13:29:07.900Z,5180.00
2018-07-07T13:30:07.845Z,5240.00
2018-07-07T13:32:01.158Z,5124.00
2018-07-07T13:33:01.085Z,5040.00
2018-07-07T13:34:54.478Z,4848.00
2018-07-07T13:35:54.420Z,5132.00
2018-07-07T13:37:47.724Z,4888.00
2018-07-07T13:38:47.664Z,4940.00
2018-07-07T13:40:40.971Z,4816.00
2018-07-07T13:41:40.885Z,4928.00
2018-07-07T13:43:34.279Z,4880.00
2018-07-07T13:44:34.122Z,4756.00
2018-07-07T13:46:27.438Z,4688.00
2018-07-07T13:47:27.363Z,4612.00
2018-07-07T13:49:20.654Z,4364.00
2018-07-07T13:50:20.598Z,4628.00
2018-07-07T13:52:14.920Z,4840.00
2018-07-07T13:53:14.833Z,4852.00
2018-07-07T13:55:08.127Z,4836.00
2018-07-07T13:56:08.070Z,4828.00
2018-07-07T13:58:01.380Z,4808.00
2018-07-07T13:59:01.299Z,4804.00
2018-07-07T14:00:54.591Z,4804.00
2018-07-07T14:01:54.537Z,4792.00
2018-07-07T14:03:47.848Z,4692.00
2018-07-07T14:04:47.774Z,4800.00
2018-07-07T14:06:41.085Z,4840.00
2018-07-07T14:07:41.014Z,4920.00
2018-07-07T14:09:34.521Z,4952.00
2018-07-07T14:10:34.419Z,4916.00
2018-07-07T14:12:27.732Z,4844.00
2018-07-07T14:13:27.657Z,4872.00
2018-07-07T14:15:20.949Z,4916.00
2018-07-07T14:16:20.897Z,4904.00
2018-07-07T14:18:14.200Z,4632.00
2018-07-07T14:19:14.127Z,4652.00
2018-07-07T14:21:07.418Z,4768.00
2018-07-07T14:22:07.365Z,4780.00
2018-07-07T14:24:00.676Z,4668.00
2018-07-07T14:25:00.602Z,4476.00
2018-07-07T14:26:53.942Z,4664.00
2018-07-07T14:27:53.837Z,4668.00
2018-07-07T14:29:48.229Z,4376.00
2018-07-07T14:30:48.074Z,4540.00
2018-07-07T14:32:41.383Z,4680.00
2018-07-07T14:33:41.309Z,4584.00
2018-07-07T14:35:34.605Z,4436.00
2018-07-07T14:36:34.549Z,4352.00
2018-07-07T14:38:27.895Z,4392.00
2018-07-07T14:39:27.787Z,4372.00
2018-07-07T14:41:21.078Z,4332.00
2018-07-07T14:42:21.024Z,4488.00
2018-07-07T14:44:14.491Z,4360.00
2018-07-07T14:45:14.428Z,4312.00
2018-07-07T14:47:07.732Z,4112.00
2018-07-07T14:48:07.655Z,4180.00
2018-07-07T14:50:00.956Z,4332.00
2018-07-07T14:51:00.908Z,4284.00
2018-07-07T14:52:54.214Z,4188.00
2018-07-07T14:53:54.134Z,4252.00
2018-07-07T14:55:47.529Z,4268.00
2018-07-07T14:56:47.375Z,4252.00
2018-07-07T14:58:40.689Z,4168.00
2018-07-07T14:59:40.615Z,4008.00
2018-07-07T15:01:34.927Z,4028.00
2018-07-07T15:02:34.866Z,3768.00
2018-07-07T15:04:28.179Z,4132.00
2018-07-07T15:05:28.107Z,4256.00
2018-07-07T15:07:21.496Z,4340.00
2018-07-07T15:08:21.346Z,4336.00
2018-07-07T15:10:14.654Z,4252.00
2018-07-07T15:11:14.578Z,4112.00
2018-07-07T15:13:07.871Z,4168.00
2018-07-07T15:14:07.816Z,4028.00
2018-07-07T15:16:02.134Z,4040.00
2018-07-07T15:17:02.059Z,4108.00
2018-07-07T15:18:55.452Z,4024.00
2018-07-07T15:19:55.296Z,4012.00
2018-07-07T15:21:48.712Z,3776.00
2018-07-07T15:22:48.700Z,4084.00
2018-07-07T15:24:42.846Z,4168.00
2018-07-07T15:25:42.773Z,4160.00
2018-07-07T15:27:36.068Z,4172.00
2018-07-07T15:28:36.013Z,4128.00
2018-07-07T15:30:29.321Z,4132.00
2018-07-07T15:31:29.247Z,4088.00
2018-07-07T15:33:22.560Z,4120.00
2018-07-07T15:34:22.530Z,4204.00
2018-07-07T15:36:15.777Z,4088.00
2018-07-07T15:37:15.722Z,3896.00
2018-07-07T15:39:09.032Z,4008.00
2018-07-07T15:40:08.966Z,3976.00
2018-07-07T15:42:02.471Z,3872.00
2018-07-07T15:43:02.416Z,4040.00
2018-07-07T15:44:55.728Z,4148.00
2018-07-07T15:45:55.706Z,4228.00
2018-07-07T15:47:48.936Z,4380.00
2018-07-07T15:48:48.883Z,4472.00
2018-07-07T15:50:42.195Z,4488.00
2018-07-07T15:51:42.120Z,4480.00
2018-07-07T15:53:35.486Z,4512.00
2018-07-07T15:54:35.360Z,4568.00
2018-07-07T15:56:28.653Z,4528.00
2018-07-07T15:57:28.599Z,4448.00
2018-07-07T15:59:22.911Z,4552.00
2018-07-07T16:00:22.837Z,4556.00
2018-07-07T16:02:16.139Z,4600.00
2018-07-07T16:03:16.086Z,4584.00
2018-07-07T16:05:10.995Z,4608.00
2018-07-07T16:06:10.431Z,4584.00
2018-07-07T16:08:03.716Z,4524.00
2018-07-07T16:09:03.661Z,4480.00
2018-07-07T16:10:57.977Z,3188.00
2018-07-07T16:11:57.901Z,4324.00
2018-07-07T16:13:51.243Z,4316.00
2018-07-07T16:14:51.153Z,4140.00
2018-07-07T16:16:44.543Z,4000.00
2018-07-07T16:17:44.421Z,3920.00
2018-07-07T16:19:37.735Z,3936.00
2018-07-07T16:20:37.668Z,3960.00
2018-07-07T16:22:31.958Z,4196.00
2018-07-07T16:23:31.909Z,4052.00
2018-07-07T16:25:25.223Z,3860.00
2018-07-07T16:26:25.148Z,4048.00
2018-07-07T16:28:18.479Z,3868.00
2018-07-07T16:29:18.419Z,3996.00
2018-07-07T16:31:11.737Z,3732.00
2018-07-07T16:32:11.664Z,3636.00
2018-07-07T16:34:04.957Z,3636.00
2018-07-07T16:35:04.904Z,3508.00
2018-07-07T16:36:58.215Z,3464.00
2018-07-07T16:37:58.140Z,3480.00
2018-07-07T16:39:51.456Z,3612.00
2018-07-07T16:40:51.379Z,3612.00
2018-07-07T16:42:44.685Z,3608.00
2018-07-07T16:43:44.618Z,3576.00
2018-07-07T16:45:37.930Z,3640.00
2018-07-07T16:46:37.857Z,3608.00
2018-07-07T16:48:31.256Z,3816.00
2018-07-07T16:49:31.094Z,3856.00
2018-07-07T16:51:24.490Z,3764.00
2018-07-07T16:52:24.412Z,3600.00
2018-07-07T16:54:17.705Z,3752.00
2018-07-07T16:55:17.649Z,3564.00
2018-07-07T16:57:11.059Z,3464.00
2018-07-07T16:58:10.903Z,3496.00
2018-07-07T17:00:04.209Z,3516.00
2018-07-07T17:01:04.122Z,3208.00
2018-07-07T17:02:57.421Z,3260.00
2018-07-07T17:03:57.364Z,3416.00
2018-07-07T17:05:50.691Z,3260.00
2018-07-07T17:06:50.605Z,3176.00
2018-07-07T17:08:43.894Z,3380.00
2018-07-07T17:09:43.852Z,3328.00
2018-07-07T17:11:37.244Z,3176.00
2018-07-07T17:12:37.072Z,3144.00
2018-07-07T17:14:31.365Z,2892.00
2018-07-07T17:15:31.311Z,2896.00
2018-07-07T17:17:24.728Z,2940.00
2018-07-07T17:18:24.582Z,3000.00
2018-07-07T17:20:17.960Z,2816.00
2018-07-07T17:21:17.782Z,2764.00
2018-07-07T17:23:11.074Z,2652.00
2018-07-07T17:24:11.018Z,2732.00
2018-07-07T17:26:04.494Z,2796.00
2018-07-07T17:27:04.416Z,2832.00
2018-07-07T17:28:57.713Z,2788.00
2018-07-07T17:29:57.658Z,2812.00
2018-07-07T17:31:50.964Z,2788.00
2018-07-07T17:32:50.891Z,2668.00
2018-07-07T17:34:44.185Z,2756.00
2018-07-07T17:35:44.127Z,2776.00
2018-07-07T17:37:37.452Z,2772.00
2018-07-07T17:38:37.371Z,2700.00
2018-07-07T17:40:30.664Z,2480.00
2018-07-07T17:41:30.607Z,2412.00
2018-07-07T17:43:23.920Z,2344.00
2018-07-07T17:44:23.841Z,2328.00
2018-07-07T17:46:17.154Z,2224.00